Time;durP1;ratioP1;P1;durP2;ratioP2;P2;SDS_P1;SDS_P2;PMS_P1;PMS_P2;Temp;Humidity;BMP_temperature;BMP_pressure;BME280_temperature;BME280_humidity;BME280_pressure;Samples;Min_cycle;Max_cycle;Signal;HPM_P1;HPM_P2
2022/09/26 00:01:20;;;;;;;36.15;26.57;;;;;;;9.23;78.55;99922.46;1768631;79;27451;-80
2022/09/26 00:03:54;;;;;;;37.67;26.90;;;;;;;9.21;78.70;99921.00;1770607;79;25849;-81
2022/09/26 00:06:22;;;;;;;36.40;25.57;;;;;;;9.19;78.71;99921.70;1738287;79;25781;-81
2022/09/26 00:08:50;;;;;;;36.68;27.27;;;;;;;9.17;78.75;99923.21;1753892;79;25768;-82
2022/09/26 00:11:21;;;;;;;39.20;26.35;;;;;;;9.15;78.60;99921.25;1768886;80;25890;-81
2022/09/26 00:13:55;;;;;;;45.03;30.08;;;;;;;9.10;78.19;99915.68;1735686;81;27486;-82
2022/09/26 00:16:22;;;;;;;40.98;28.73;;;;;;;9.03;77.96;99917.46;1748630;81;25888;-81
2022/09/26 00:18:50;;;;;;;36.83;28.27;;;;;;;8.97;77.90;99918.23;1743232;81;25296;-81
2022/09/26 00:21:17;;;;;;;39.98;27.02;;;;;;;8.89;77.81;99915.71;1751124;81;25603;-83
2022/09/26 00:23:44;;;;;;;38.33;26.90;;;;;;;8.84;77.73;99912.78;1743485;81;26003;-81
2022/09/26 00:26:13;;;;;;;38.25;26.15;;;;;;;8.79;77.63;99906.38;1755744;81;27473;-83
2022/09/26 00:28:40;;;;;;;33.48;24.05;;;;;;;8.74;77.69;99909.62;1743734;81;25864;-81
2022/09/26 00:31:11;;;;;;;37.70;26.02;;;;;;;8.70;77.75;99903.02;1757074;81;26414;-81
2022/09/26 00:33:38;;;;;;;34.40;24.18;;;;;;;8.67;77.73;99897.20;1741827;81;25738;-81
2022/09/26 00:36:06;;;;;;;34.70;26.30;;;;;;;8.64;77.67;99893.07;1756230;81;25853;-82
2022/09/26 00:38:34;;;;;;;36.17;25.82;;;;;;;8.60;77.63;99897.14;1746156;80;27003;-82
2022/09/26 00:41:02;;;;;;;41.00;27.98;;;;;;;8.54;77.51;99904.09;1744760;80;25897;-81
2022/09/26 00:43:37;;;;;;;37.80;26.70;;;;;;;8.49;77.76;99901.65;1729311;81;26540;-82
2022/09/26 00:46:37;;;;;;;38.08;28.07;;;;;;;8.45;77.99;99896.38;1753738;81;25464;-82
2022/09/26 00:49:15;;;;;;;38.08;26.87;;;;;;;8.41;77.95;99895.94;1746960;81;25854;-82
2022/09/26 00:51:46;;;;;;;38.23;26.27;;;;;;;8.36;77.82;99896.20;1754502;81;27606;-81
2022/09/26 00:54:16;;;;;;;38.08;26.85;;;;;;;8.30;77.75;99894.27;1756378;81;25333;-81
2022/09/26 00:56:47;;;;;;;38.70;25.68;;;;;;;8.27;77.77;99897.33;1756288;81;25317;-81
2022/09/26 00:59:28;;;;;;;41.70;26.48;;;;;;;8.24;77.69;99890.49;1751062;81;25794;-82
2022/09/26 01:01:58;;;;;;;38.45;26.20;;;;;;;8.21;77.71;99891.39;1752822;81;26530;-82
2022/09/26 01:04:28;;;;;;;38.30;25.37;;;;;;;8.19;77.82;99892.09;1726195;81;27481;-83
2022/09/26 01:06:57;;;;;;;33.75;23.55;;;;;;;8.16;77.97;99896.45;1750905;81;25972;-81
2022/09/26 01:09:25;;;;;;;37.25;24.35;;;;;;;8.15;78.14;99894.78;1749738;81;25810;-82
2022/09/26 01:11:52;;;;;;;39.40;26.90;;;;;;;8.14;78.01;99893.15;1732993;81;25727;-81
2022/09/26 01:14:20;;;;;;;36.10;24.80;;;;;;;8.11;77.96;99896.18;1751637;81;25252;-82
2022/09/26 01:16:50;;;;;;;35.55;25.27;;;;;;;8.08;77.95;99890.73;1764251;80;27474;-83
2022/09/26 01:19:44;;;;;;;30.05;23.30;;;;;;;8.05;78.12;99887.59;1751811;81;25798;-81
2022/09/26 01:22:48;;;;;;;29.65;22.22;;;;;;;8.01;77.77;99890.33;1767244;80;26324;-82
2022/09/26 01:25:57;;;;;;;32.23;23.30;;;;;;;7.94;77.78;99892.08;1771346;80;25988;-82
2022/09/26 01:28:34;;;;;;;32.95;22.80;;;;;;;7.89;77.86;99888.64;1763720;81;25705;-82
2022/09/26 01:31:24;;;;;;;32.40;24.02;;;;;;;7.85;77.91;99881.22;1763168;80;27460;-83
2022/09/26 01:34:14;;;;;;;31.48;22.87;;;;;;;7.83;77.96;99881.92;1765186;80;25827;-82
2022/09/26 01:37:04;;;;;;;32.15;23.75;;;;;;;7.79;77.94;99876.95;1765312;81;25304;-82
2022/09/26 01:39:42;;;;;;;31.52;23.80;;;;;;;7.78;77.99;99877.14;1746598;81;26493;-80
2022/09/26 01:42:32;;;;;;;32.60;24.37;;;;;;;7.75;78.02;99870.34;1767103;81;25837;-82
2022/09/26 01:45:10;;;;;;;34.00;24.00;;;;;;;7.73;78.06;99872.36;1771602;79;28376;-81
2022/09/26 01:47:44;;;;;;;36.30;25.82;;;;;;;7.71;77.91;99866.89;1766482;79;26470;-81
2022/09/26 01:50:32;;;;;;;36.23;25.50;;;;;;;7.67;77.93;99870.45;1770378;79;25782;-81
2022/09/26 01:53:18;;;;;;;29.70;24.18;;;;;;;7.65;78.18;99875.64;1778954;79;26343;-81
2022/09/26 01:55:58;;;;;;;32.10;25.27;;;;;;;7.61;78.26;99877.02;1778094;79;25882;-80
2022/09/26 01:58:48;;;;;;;34.70;24.25;;;;;;;7.56;78.31;99874.08;1768220;81;27419;-81
2022/09/26 02:01:17;;;;;;;30.85;24.37;;;;;;;7.51;78.17;99867.96;1678582;84;26009;-80
2022/09/26 02:03:49;;;;;;;38.10;23.62;;;;;;;7.47;78.09;99869.84;1739531;79;25794;-81
2022/09/26 02:06:21;;;;;;;32.83;22.32;;;;;;;7.42;77.88;99865.06;1758681;79;25459;-80
2022/09/26 02:08:56;;;;;;;31.97;23.75;;;;;;;7.37;77.79;99869.30;1767335;79;25321;-82
2022/09/26 02:11:24;;;;;;;36.35;23.22;;;;;;;7.31;77.76;99870.05;1765694;81;27459;-81
2022/09/26 02:14:12;;;;;;;33.45;23.15;;;;;;;7.26;77.84;99864.43;1768638;80;25866;-81
2022/09/26 02:16:45;;;;;;;32.58;22.48;;;;;;;7.23;78.04;99863.48;1740517;81;25783;-81
2022/09/26 02:19:19;;;;;;;36.15;23.32;;;;;;;7.17;78.00;99859.69;1735534;81;26143;-81
2022/09/26 02:21:46;;;;;;;34.35;23.45;;;;;;;7.15;78.29;99865.70;1767933;79;25785;-80
2022/09/26 02:24:13;;;;;;;35.13;23.07;;;;;;;7.14;78.53;99865.91;1771633;79;28248;-81
2022/09/26 02:26:41;;;;;;;31.82;22.40;;;;;;;7.12;78.38;99866.59;1766982;79;25785;-82
2022/09/26 02:29:09;;;;;;;32.13;23.15;;;;;;;7.10;78.38;99870.74;1771642;79;25800;-81
2022/09/26 02:31:41;;;;;;;32.80;22.62;;;;;;;7.10;78.39;99868.61;1772900;79;25612;-81
2022/09/26 02:34:07;;;;;;;34.43;24.55;;;;;;;7.10;78.28;99867.28;1737320;81;25870;-82
2022/09/26 02:36:35;;;;;;;32.55;23.45;;;;;;;7.06;78.47;99862.80;1786193;80;27458;-81
2022/09/26 02:39:02;;;;;;;28.65;20.65;;;;;;;7.06;78.54;99865.46;1782306;79;25760;-80
2022/09/26 02:42:00;;;;;;;31.45;22.42;;;;;;;7.05;78.50;99865.66;1758334;79;25771;-80
2022/09/26 02:45:06;;;;;;;29.37;20.72;;;;;;;7.03;78.63;99862.35;1746834;81;26357;-81
2022/09/26 02:47:57;;;;;;;27.10;21.17;;;;;;;6.98;78.53;99857.06;1763867;81;25266;-80
2022/09/26 02:51:09;;;;;;;31.13;21.50;;;;;;;6.93;78.49;99860.77;1778755;79;27484;-80
2022/09/26 02:54:13;;;;;;;32.15;21.75;;;;;;;6.89;78.57;99861.30;1774634;79;25790;-81
2022/09/26 02:57:02;;;;;;;33.40;22.62;;;;;;;6.87;78.61;99863.33;1733253;81;25948;-81
2022/09/26 02:59:44;;;;;;;38.48;24.27;;;;;;;6.82;78.60;99860.40;1772355;79;25867;-81
2022/09/26 03:02:18;;;;;;;37.35;22.75;;;;;;;6.78;78.51;99855.92;1778334;79;25309;-83
2022/09/26 03:04:58;;;;;;;43.50;24.65;;;;;;;6.78;78.71;99855.08;1740233;81;28047;-80
2022/09/26 03:07:37;;;;;;;42.40;26.87;;;;;;;6.76;78.82;99855.27;1769690;80;25723;-81
2022/09/26 03:10:08;;;;;;;42.95;25.57;;;;;;;6.75;78.90;99851.47;1777196;79;25688;-81
2022/09/26 03:12:37;;;;;;;38.50;24.03;;;;;;;6.74;78.80;99849.80;1765237;79;25815;-82
2022/09/26 03:15:07;;;;;;;37.75;24.52;;;;;;;6.72;78.77;99849.98;1765550;79;25282;-80
2022/09/26 03:17:37;;;;;;;34.25;22.70;;;;;;;6.71;78.84;99847.52;1768433;79;28261;-81
2022/09/26 03:20:17;;;;;;;41.20;24.85;;;;;;;6.69;78.89;99843.69;1759553;79;25315;-81
2022/09/26 03:22:44;;;;;;;60.67;28.52;;;;;;;6.69;78.96;99845.02;1769189;79;25889;-81
2022/09/26 03:25:20;;;;;;;49.05;27.73;;;;;;;6.68;78.90;99842.55;1759643;79;26224;-81
2022/09/26 03:27:54;;;;;;;44.50;27.20;;;;;;;6.66;79.04;99845.39;1758868;79;26162;-82
2022/09/26 03:30:22;;;;;;;36.10;22.93;;;;;;;6.63;79.31;99839.62;1768508;80;28253;-83
2022/09/26 03:33:07;;;;;;;38.00;23.35;;;;;;;6.61;79.18;99840.27;1769267;79;25815;-82
2022/09/26 03:35:34;;;;;;;40.33;23.70;;;;;;;6.58;79.25;99834.83;1740488;81;25653;-82
2022/09/26 03:38:00;;;;;;;39.30;25.20;;;;;;;6.59;79.44;99835.63;1789161;79;26300;-81
2022/09/26 03:40:28;;;;;;;36.70;22.07;;;;;;;6.59;79.46;99824.49;1733645;81;25791;-82
2022/09/26 03:42:56;;;;;;;41.88;21.07;;;;;;;6.58;79.45;99823.35;1752585;81;27462;-80
2022/09/26 03:45:22;;;;;;;44.40;23.02;;;;;;;6.58;79.48;99822.86;1756472;81;25836;-82
2022/09/26 03:47:57;;;;;;;37.20;20.12;;;;;;;6.55;79.46;99823.20;1748598;81;26351;-82
2022/09/26 03:50:24;;;;;;;30.88;20.97;;;;;;;6.53;79.55;99825.22;1761624;81;25541;-81
2022/09/26 03:52:51;;;;;;;33.75;20.92;;;;;;;6.50;79.63;99816.25;1761203;79;26470;-81
2022/09/26 03:55:19;;;;;;;30.92;20.27;;;;;;;6.49;79.46;99813.78;1768290;80;27092;-81
2022/09/26 03:57:46;;;;;;;35.45;21.48;;;;;;;6.47;79.43;99815.80;1766102;81;25915;-81
2022/09/26 04:00:14;;;;;;;35.13;21.93;;;;;;;6.44;79.63;99820.96;1761872;79;25863;-81
2022/09/26 04:02:44;;;;;;;47.98;23.00;;;;;;;6.42;79.67;99817.66;1758962;79;25809;-82
2022/09/26 04:05:12;;;;;;;37.50;22.77;;;;;;;6.42;79.88;99817.66;1780078;79;25790;-81
2022/09/26 04:07:39;;;;;;;35.40;23.05;;;;;;;6.42;79.87;99818.16;1735947;82;27516;-81
2022/09/26 04:10:07;;;;;;;37.83;23.02;;;;;;;6.40;79.89;99816.17;1742406;81;25899;-81
2022/09/26 04:12:34;;;;;;;38.48;22.25;;;;;;;6.38;80.09;99817.70;1785349;79;25809;-80
2022/09/26 04:15:01;;;;;;;41.18;23.40;;;;;;;6.37;80.24;99817.39;1767390;79;26253;-81
2022/09/26 04:17:29;;;;;;;32.48;22.62;;;;;;;6.36;80.32;99815.72;1766947;79;25810;-81
2022/09/26 04:19:55;;;;;;;35.73;21.70;;;;;;;6.34;80.33;99811.08;1781554;79;28557;-81
2022/09/26 04:22:24;;;;;;;36.23;20.88;;;;;;;6.33;80.20;99811.27;1752824;81;25889;-80
2022/09/26 04:24:50;;;;;;;33.67;23.30;;;;;;;6.34;80.24;99810.25;1783861;79;25924;-80
2022/09/26 04:27:17;;;;;;;29.37;21.00;;;;;;;6.31;80.25;99816.75;1761221;79;26158;-80
2022/09/26 04:29:45;;;;;;;34.10;21.70;;;;;;;6.30;80.41;99804.97;1762600;79;25811;-81
2022/09/26 04:32:14;;;;;;;38.65;22.60;;;;;;;6.29;80.58;99803.33;1757294;79;27511;-80
2022/09/26 04:34:48;;;;;;;42.33;23.35;;;;;;;6.31;80.81;99801.31;1719624;79;25343;-81
2022/09/26 04:37:15;;;;;;;36.00;22.62;;;;;;;6.33;80.99;99797.97;1767430;79;26531;-81
2022/09/26 04:39:41;;;;;;;45.03;24.82;;;;;;;6.35;81.08;99801.28;1767385;79;26236;-80
2022/09/26 04:42:07;;;;;;;35.30;24.02;;;;;;;6.34;81.26;99802.27;1761144;80;25839;-81
2022/09/26 04:44:35;;;;;;;38.30;24.05;;;;;;;6.35;81.74;99808.73;1730226;81;27587;-82
2022/09/26 04:47:01;;;;;;;37.90;22.42;;;;;;;6.38;82.04;99802.23;1773185;79;25812;-80
2022/09/26 04:49:29;;;;;;;42.58;22.93;;;;;;;6.39;82.32;99795.42;1766497;79;25838;-81
2022/09/26 04:51:56;;;;;;;39.30;22.50;;;;;;;6.42;82.58;99800.86;1734262;81;26189;-80
2022/09/26 04:54:23;;;;;;;37.23;23.20;;;;;;;6.44;82.78;99797.02;1760350;79;25743;-80
2022/09/26 04:56:49;;;;;;;32.00;20.52;;;;;;;6.47;82.99;99798.50;1767243;79;27628;-81
2022/09/26 04:59:16;;;;;;;38.28;20.80;;;;;;;6.50;83.11;99795.50;1762847;79;25713;-81
2022/09/26 05:01:44;;;;;;;44.20;21.70;;;;;;;6.53;83.48;99789.80;1759417;79;26478;-81
2022/09/26 05:04:13;;;;;;;27.30;19.67;;;;;;;6.56;83.76;99791.61;1752378;79;25675;-81
2022/09/26 05:06:39;;;;;;;76.77;25.48;;;;;;;6.61;84.12;99789.71;1764797;79;25816;-81
2022/09/26 05:09:07;;;;;;;53.28;21.07;;;;;;;6.65;84.76;99793.69;1761382;79;27466;-80
2022/09/26 05:11:51;;;;;;;38.48;19.48;;;;;;;6.68;85.26;99785.33;1768508;79;25325;-81
2022/09/26 05:14:18;;;;;;;30.05;17.32;;;;;;;6.71;85.62;99788.97;1764604;79;25755;-80
2022/09/26 05:16:44;;;;;;;27.50;18.12;;;;;;;6.74;85.87;99787.26;1762828;79;26059;-81
2022/09/26 05:19:12;;;;;;;22.55;17.75;;;;;;;6.76;86.15;99780.75;1770357;79;25959;-81
2022/09/26 05:21:42;;;;;;;29.52;20.60;;;;;;;6.80;86.34;99774.05;1762453;79;28375;-82
2022/09/26 05:26:54;;;;;;;32.08;21.77;;;;;;;6.88;86.56;99775.31;1728281;81;25310;-80
2022/09/26 05:29:21;;;;;;;31.10;18.23;;;;;;;6.89;86.74;99778.78;1732438;80;25919;-80
2022/09/26 05:31:53;;;;;;;36.10;17.45;;;;;;;6.90;86.89;99771.13;1767267;79;25342;-81
2022/09/26 05:34:23;;;;;;;32.40;18.55;;;;;;;6.92;87.14;99783.25;1751842;81;28391;-81
2022/09/26 05:36:53;;;;;;;62.77;18.57;;;;;;;6.95;87.28;99778.88;1752883;81;26163;-82
2022/09/26 05:42:05;;;;;;;51.05;19.70;;;;;;;7.03;87.66;99780.11;1774573;79;25808;-81
2022/09/26 05:44:32;;;;;;;37.58;18.50;;;;;;;7.09;87.89;99777.23;1726932;81;25821;-82
2022/09/26 05:46:59;;;;;;;54.53;19.40;;;;;;;7.12;88.11;99782.70;1756483;80;27463;-81
2022/09/26 05:49:26;;;;;;;24.92;18.17;;;;;;;7.13;88.44;99783.84;1751353;81;25967;-80
2022/09/26 05:51:53;;;;;;;35.35;19.12;;;;;;;7.17;88.62;99781.63;1736133;80;25791;-81
2022/09/26 05:54:19;;;;;;;28.20;19.30;;;;;;;7.22;88.74;99782.74;1747848;81;26545;-81
2022/09/26 05:56:46;;;;;;;30.60;19.98;;;;;;;7.28;88.92;99779.33;1747123;81;25836;-81
2022/09/26 05:59:17;;;;;;;27.48;20.92;;;;;;;7.34;89.05;99773.75;1742829;81;27457;-81
2022/09/26 06:02:05;;;;;;;44.60;20.45;;;;;;;7.40;89.27;99773.04;1753644;81;26351;-80
2022/09/26 06:04:39;;;;;;;32.55;19.62;;;;;;;7.45;89.43;99773.28;1748592;80;25781;-81
2022/09/26 06:07:13;;;;;;;29.57;19.15;;;;;;;7.48;89.51;99773.76;1743350;81;25600;-80
2022/09/26 06:09:40;;;;;;;43.85;20.10;;;;;;;7.55;89.69;99771.97;1744830;81;26522;-81
2022/09/26 06:12:08;;;;;;;45.65;21.05;;;;;;;7.62;89.75;99780.05;1738455;81;27562;-81
2022/09/26 06:14:34;;;;;;;24.63;19.95;;;;;;;7.68;89.98;99781.95;1750353;80;26338;-81
2022/09/26 06:17:01;;;;;;;29.77;20.70;;;;;;;7.70;90.17;99782.09;1751567;80;25798;-81
2022/09/26 06:19:27;;;;;;;31.45;21.80;;;;;;;7.76;90.42;99783.20;1751254;79;25799;-80
2022/09/26 06:21:53;;;;;;;29.92;22.32;;;;;;;7.84;90.55;99783.58;1765609;79;25794;-81
2022/09/26 06:24:20;;;;;;;37.33;22.13;;;;;;;7.89;90.67;99783.84;1768287;79;28108;-80
2022/09/26 06:26:48;;;;;;;29.07;20.05;;;;;;;7.95;90.82;99785.25;1767635;79;26417;-81
2022/09/26 06:29:14;;;;;;;29.20;23.10;;;;;;;8.02;91.09;99782.12;1770595;79;26363;-81
2022/09/26 06:31:42;;;;;;;29.98;22.27;;;;;;;8.08;91.23;99784.55;1766846;79;26234;-80
2022/09/26 06:34:13;;;;;;;36.95;23.32;;;;;;;8.13;91.37;99785.62;1768180;79;26037;-80
2022/09/26 06:36:45;;;;;;;28.05;22.32;;;;;;;8.19;91.55;99783.52;1767764;79;27493;-81
2022/09/26 06:39:13;;;;;;;27.45;22.52;;;;;;;8.24;91.76;99770.44;1769988;79;25301;-81
2022/09/26 06:41:40;;;;;;;34.40;25.25;;;;;;;8.32;91.96;99770.83;1771442;79;25918;-81
2022/09/26 06:44:25;;;;;;;31.35;23.92;;;;;;;8.39;92.15;99771.72;1756238;81;25816;-81
2022/09/26 06:47:11;;;;;;;31.27;24.87;;;;;;;8.45;92.28;99773.11;1766927;79;26000;-81
2022/09/26 06:49:38;;;;;;;33.92;25.12;;;;;;;8.51;92.60;99775.00;1756855;79;27457;-80
2022/09/26 06:52:10;;;;;;;36.85;24.40;;;;;;;8.57;92.80;99776.09;1782625;79;25848;-80
2022/09/26 06:54:37;;;;;;;42.67;26.15;;;;;;;8.66;93.18;99778.11;1776958;79;26028;-82
2022/09/26 06:57:03;;;;;;;48.45;26.02;;;;;;;8.76;93.68;99776.74;1773249;79;26368;-80
2022/09/26 06:59:31;;;;;;;37.50;25.37;;;;;;;8.88;94.38;99775.67;1763515;79;25789;-80
2022/09/26 07:02:07;;;;;;;77.45;30.65;;;;;;;8.99;94.33;99773.80;1735837;81;28065;-80
2022/09/26 07:04:41;;;;;;;45.78;30.72;;;;;;;9.08;94.40;99776.62;1709540;80;26171;-80
2022/09/26 07:07:18;;;;;;;43.63;27.15;;;;;;;9.14;94.20;99779.34;1775192;79;25885;-81
2022/09/26 07:09:44;;;;;;;39.95;27.67;;;;;;;9.19;94.14;99780.09;1737581;81;25976;-81
2022/09/26 07:12:15;;;;;;;42.20;27.20;;;;;;;9.26;94.31;99779.09;1782110;79;25745;-81
2022/09/26 07:14:42;;;;;;;41.08;27.50;;;;;;;9.34;94.59;99772.23;1761698;79;27462;-82
2022/09/26 07:17:23;;;;;;;47.53;31.05;;;;;;;9.43;94.86;99765.41;1759129;79;25763;-81
2022/09/26 07:20:15;;;;;;;56.05;33.75;;;;;;;9.52;95.13;99765.52;1755957;80;25809;-81
2022/09/26 07:22:52;;;;;;;50.17;32.35;;;;;;;9.62;95.58;99765.48;1750106;81;26360;-80
2022/09/26 07:25:19;;;;;;;44.63;32.58;;;;;;;9.68;95.82;99764.67;1749217;81;26389;-80
2022/09/26 07:27:51;;;;;;;42.98;30.80;;;;;;;9.75;95.94;99764.69;1744184;81;28268;-81
2022/09/26 07:30:19;;;;;;;44.42;30.72;;;;;;;9.81;96.09;99761.20;1748356;80;25890;-81
2022/09/26 07:32:47;;;;;;;54.10;36.65;;;;;;;9.88;96.14;99760.19;1745313;81;25859;-80
2022/09/26 07:35:16;;;;;;;47.50;32.15;;;;;;;9.93;96.30;99772.45;1736244;81;25445;-81
2022/09/26 07:37:43;;;;;;;48.17;32.42;;;;;;;10.01;96.70;99772.25;1755135;81;26144;-81
2022/09/26 07:40:10;;;;;;;52.20;34.08;;;;;;;10.11;97.07;99777.25;1754792;81;27416;-80
2022/09/26 07:42:37;;;;;;;48.80;33.58;;;;;;;10.19;97.33;99774.88;1738392;81;25830;-81
2022/09/26 07:45:06;;;;;;;45.00;33.33;;;;;;;10.28;97.61;99770.48;1739160;81;25308;-81
2022/09/26 07:50:33;;;;;;;47.43;34.40;;;;;;;10.47;97.79;99772.84;1714969;81;25910;-81
2022/09/26 07:53:10;;;;;;;48.98;35.73;;;;;;;10.59;98.00;99776.55;1752923;81;27462;-81
2022/09/26 07:56:09;;;;;;;56.95;36.55;;;;;;;10.71;98.26;99776.25;1738282;81;26171;-81
2022/09/26 07:58:40;;;;;;;49.80;35.83;;;;;;;10.83;98.28;99770.55;1750214;81;25749;-81
2022/09/26 08:01:12;;;;;;;48.15;35.52;;;;;;;10.99;98.32;99771.98;1744873;81;26084;-81
2022/09/26 08:03:57;;;;;;;54.23;39.63;;;;;;;11.11;98.50;99767.61;1755949;81;25302;-82
2022/09/26 08:06:32;;;;;;;51.10;36.30;;;;;;;11.22;98.51;99767.80;1741715;81;28143;-82
2022/09/26 08:08:58;;;;;;;52.90;39.83;;;;;;;11.32;98.33;99768.67;1753771;81;25868;-83
2022/09/26 08:11:45;;;;;;;47.65;36.00;;;;;;;11.44;98.73;99758.96;1746685;81;25975;-82
2022/09/26 08:14:22;;;;;;;46.10;35.78;;;;;;;11.58;98.98;99761.37;1720694;82;26199;-80
2022/09/26 08:17:06;;;;;;;42.10;34.33;;;;;;;11.70;99.03;99764.22;1750328;79;25302;-80
2022/09/26 08:19:32;;;;;;;44.23;34.35;;;;;;;11.79;99.47;99758.08;1760910;79;28223;-81
2022/09/26 08:21:58;;;;;;;44.23;34.40;;;;;;;11.90;99.59;99754.20;1749673;79;25797;-80
2022/09/26 08:24:25;;;;;;;46.05;34.60;;;;;;;12.01;100.00;99755.38;1763080;80;25774;-80
2022/09/26 08:26:54;;;;;;;40.55;33.35;;;;;;;12.12;99.99;99750.66;1762717;79;25774;-81
2022/09/26 08:29:26;;;;;;;49.05;36.25;;;;;;;12.23;99.60;99745.40;1747441;79;25730;-81
2022/09/26 08:31:54;;;;;;;43.75;34.90;;;;;;;12.37;99.83;99740.76;1746848;81;27440;-81
2022/09/26 08:34:20;;;;;;;44.83;34.55;;;;;;;12.52;100.00;99741.77;1762104;79;25763;-79
2022/09/26 08:36:53;;;;;;;40.20;32.05;;;;;;;12.66;100.00;99748.69;1753203;79;25759;-80
2022/09/26 08:39:27;;;;;;;39.10;31.40;;;;;;;12.81;100.00;99746.48;1721473;81;25959;-80
2022/09/26 08:42:27;;;;;;;;;;;;;;;12.97;99.96;99738.65;1716582;81;25823;-80
2022/09/26 08:49:22;;;;;;;38.35;31.73;;;;;;;13.27;99.86;99737.41;1712970;79;25830;-80
2022/09/26 08:51:50;;;;;;;35.83;30.57;;;;;;;13.46;99.40;99736.35;1710244;83;26463;-80
2022/09/26 08:54:37;;;;;;;38.13;30.12;;;;;;;13.61;98.99;99728.70;1735617;81;26194;-79
2022/09/26 08:57:18;;;;;;;37.05;30.27;;;;;;;13.72;98.44;99724.42;1734606;81;25835;-81
2022/09/26 08:59:48;;;;;;;39.00;30.65;;;;;;;13.82;98.18;99728.20;1688947;84;27466;-82
2022/09/26 09:02:37;;;;;;;40.08;30.82;;;;;;;13.93;97.71;99722.56;1708657;83;25940;-81
2022/09/26 09:05:17;;;;;;;36.23;28.65;;;;;;;14.03;97.82;99720.67;1741033;81;26167;-81
2022/09/26 09:07:51;;;;;;;34.83;30.97;;;;;;;14.13;97.40;99720.92;1684661;84;25832;-81
2022/09/26 09:10:45;;;;;;;30.77;26.57;;;;;;;14.22;97.32;99721.69;1683226;83;25828;-81
2022/09/26 09:13:48;;;;;;;29.60;25.43;;;;;;;14.31;96.80;99714.13;1731595;81;28262;-81
2022/09/26 09:17:12;;;;;;;29.70;26.50;;;;;;;14.37;96.21;99709.97;1737050;81;25774;-82
2022/09/26 09:20:20;;;;;;;31.52;25.35;;;;;;;14.47;96.46;99708.89;1739394;81;25863;-81
2022/09/26 09:23:03;;;;;;;32.30;24.65;;;;;;;14.59;95.95;99711.05;1733408;81;25646;-81
2022/09/26 09:25:46;;;;;;;29.67;24.45;;;;;;;14.67;95.66;99705.30;1739231;81;25966;-81
2022/09/26 09:28:48;;;;;;;26.82;23.57;;;;;;;14.77;95.23;99709.30;1713944;81;28149;-81
2022/09/26 09:31:16;;;;;;;27.22;22.95;;;;;;;14.81;94.96;99700.50;1748217;81;26465;-80
2022/09/26 09:34:14;;;;;;;27.42;23.32;;;;;;;14.88;94.60;99699.86;1741308;81;25835;-81
2022/09/26 09:36:53;;;;;;;26.68;23.30;;;;;;;14.96;94.75;99699.49;1641973;84;25718;-81
2022/09/26 09:39:38;;;;;;;27.65;23.50;;;;;;;15.07;94.52;99704.58;1720596;81;25848;-82
2022/09/26 09:42:18;;;;;;;27.52;23.07;;;;;;;15.13;94.37;99699.57;1732932;81;27631;-81
2022/09/26 09:44:50;;;;;;;28.42;23.30;;;;;;;15.19;94.10;99708.88;1741138;81;25942;-81
2022/09/26 09:47:18;;;;;;;24.85;21.80;;;;;;;15.26;93.86;99704.19;1715776;83;25799;-81
2022/09/26 09:49:47;;;;;;;26.97;22.35;;;;;;;15.33;93.68;99694.05;1745776;81;25815;-81
2022/09/26 09:52:43;;;;;;;26.10;21.05;;;;;;;15.42;93.44;99698.55;1737678;81;25309;-82
2022/09/26 09:55:46;;;;;;;25.43;22.65;;;;;;;15.48;93.14;99693.59;1749629;81;28083;-81
2022/09/26 09:58:30;;;;;;;25.65;21.02;;;;;;;15.56;92.97;99693.20;1732718;81;25901;-80
2022/09/26 10:01:15;;;;;;;21.85;18.07;;;;;;;15.65;92.75;99690.41;1734966;81;25742;-80
2022/09/26 10:04:03;;;;;;;26.70;20.72;;;;;;;15.74;92.00;99689.50;1748819;81;25768;-79
2022/09/26 10:06:31;;;;;;;23.70;18.87;;;;;;;15.80;91.92;99689.31;1705032;83;25834;-80
2022/09/26 10:09:22;;;;;;;21.60;19.23;;;;;;;15.89;91.06;99691.09;1738894;81;27963;-82
2022/09/26 10:11:58;;;;;;;21.97;16.67;;;;;;;15.96;90.89;99695.30;1743707;81;26198;-82
2022/09/26 10:14:55;;;;;;;15.28;13.65;;;;;;;16.06;90.46;99692.77;1656795;85;25870;-82
2022/09/26 10:17:34;;;;;;;13.35;11.85;;;;;;;16.15;89.30;99693.17;1658337;85;26140;-81
2022/09/26 10:20:34;;;;;;;16.70;14.60;;;;;;;16.25;88.83;99696.07;1707722;81;26028;-81
2022/09/26 10:23:02;;;;;;;18.45;13.72;;;;;;;16.33;88.16;99693.48;1734943;81;27468;-81
2022/09/26 10:25:28;;;;;;;15.23;12.43;;;;;;;16.41;88.05;99689.01;1740564;81;25850;-82
2022/09/26 10:27:59;;;;;;;16.30;12.00;;;;;;;16.47;87.44;99689.37;1747063;81;25958;-81
2022/09/26 10:30:32;;;;;;;15.65;11.57;;;;;;;16.52;86.51;99693.02;1737267;81;25608;-82
2022/09/26 10:33:11;;;;;;;16.90;13.65;;;;;;;16.58;86.23;99690.67;1738641;81;25743;-81
2022/09/26 10:35:45;;;;;;;16.07;13.15;;;;;;;16.65;85.71;99683.74;1741330;81;28447;-82
2022/09/26 10:38:23;;;;;;;14.25;12.75;;;;;;;16.72;85.12;99682.48;1733030;81;26601;-82
2022/09/26 10:41:00;;;;;;;15.20;12.95;;;;;;;16.79;84.70;99673.67;1745912;81;26093;-81
2022/09/26 10:43:31;;;;;;;15.43;13.78;;;;;;;16.82;84.26;99662.89;1742148;81;25735;-81
2022/09/26 10:46:16;;;;;;;12.47;11.15;;;;;;;16.89;83.94;99658.13;1682020;84;25771;-80
2022/09/26 10:49:02;;;;;;;14.03;10.65;;;;;;;16.95;83.92;99660.66;1687181;84;27473;-82
2022/09/26 10:52:01;;;;;;;13.72;10.95;;;;;;;17.06;83.56;99657.55;1687177;84;26472;-82
2022/09/26 10:54:39;;;;;;;10.75;9.28;;;;;;;17.14;83.13;99648.15;1702655;84;25711;-80
2022/09/26 10:57:08;;;;;;;8.78;7.87;;;;;;;17.24;82.67;99652.32;1687759;84;26404;-80
2022/09/26 10:59:33;;;;;;;10.18;7.25;;;;;;;17.32;81.26;99645.92;1687549;84;25851;-82
2022/09/26 11:02:01;;;;;;;9.90;7.00;;;;;;;17.43;79.38;99649.56;1689464;84;28019;-82
2022/09/26 11:07:42;;;;;;;8.60;7.37;;;;;;;17.62;77.94;99651.70;1699170;83;25841;-82
2022/09/26 11:10:24;;;;;;;12.07;7.70;;;;;;;17.68;76.90;99649.33;1684162;83;25844;-81
2022/09/26 11:13:01;;;;;;;8.65;6.62;;;;;;;17.75;76.56;99653.75;1716945;81;25571;-81
2022/09/26 11:15:31;;;;;;;9.53;6.70;;;;;;;17.79;75.88;99647.56;1710629;80;27441;31
2022/09/26 11:17:57;;;;;;;7.60;6.05;;;;;;;17.84;75.58;99650.30;1756894;80;26400;-80
2022/09/26 11:20:45;;;;;;;7.67;6.45;;;;;;;17.89;74.91;99650.36;1757895;80;25884;-79
2022/09/26 11:23:46;;;;;;;8.88;6.55;;;;;;;17.91;74.10;99645.50;1757988;80;25750;-82
2022/09/26 11:26:36;;;;;;;8.60;6.92;;;;;;;17.97;73.61;99647.17;1712842;81;25925;-81
2022/09/26 11:29:20;;;;;;;8.05;7.25;;;;;;;18.02;73.72;99644.52;1706743;82;27460;-81
2022/09/26 11:31:52;;;;;;;10.82;7.28;;;;;;;18.08;72.95;99631.81;1703048;82;25968;-81
2022/09/26 11:34:25;;;;;;;8.93;6.85;;;;;;;18.10;72.69;99634.55;1725795;81;25803;-80
2022/09/26 11:37:14;;;;;;;8.75;6.25;;;;;;;18.17;72.06;99631.09;1724519;81;25796;-81
2022/09/26 11:40:13;;;;;;;10.53;7.37;;;;;;;18.22;71.61;99627.61;1728094;81;25769;-81
2022/09/26 11:43:24;;;;;;;7.67;6.87;;;;;;;18.26;71.96;99620.02;1706284;82;27480;-80
2022/09/26 11:46:15;;;;;;;7.70;6.37;;;;;;;18.30;71.27;99623.88;1702170;82;25795;-81
2022/09/26 11:49:38;;;;;;;9.95;7.28;;;;;;;18.39;71.70;99622.28;1686807;82;25839;-81
2022/09/26 11:52:45;;;;;;;10.63;7.30;;;;;;;18.47;71.64;99618.32;1652897;84;25613;-81
2022/09/26 11:55:59;;;;;;;11.78;7.65;;;;;;;18.52;70.72;99614.83;1705480;83;25939;-80
2022/09/26 11:58:46;;;;;;;9.68;6.65;;;;;;;18.56;70.79;99613.22;1704752;82;27483;-82
2022/09/26 12:01:34;;;;;;;7.72;6.58;;;;;;;18.62;70.46;99617.05;1704576;82;25934;-81
2022/09/26 12:04:44;;;;;;;9.73;7.08;;;;;;;18.69;70.20;99613.55;1704732;82;25811;-80
2022/09/26 12:07:21;;;;;;;7.60;5.97;;;;;;;18.74;69.91;99611.41;1636192;85;26308;-81
2022/09/26 12:10:24;;;;;;;6.70;5.58;;;;;;;18.77;69.33;99614.42;1643796;87;26687;-81
2022/09/26 12:13:04;;;;;;;6.20;5.22;;;;;;;18.80;68.84;99603.56;1678440;83;27681;-80
2022/09/26 12:15:34;;;;;;;;;;;;;;;18.86;67.90;99611.46;1704451;83;25824;-81
2022/09/26 12:18:23;;;;;;;7.70;5.40;;;;;;;18.92;67.17;99604.18;1706056;82;25836;-80
2022/09/26 12:21:12;;;;;;;8.13;5.92;;;;;;;18.92;67.27;99602.82;1706864;82;26255;-80